Benton, IL (62812)

12:42 AM CDT on August 28, 2015 (GMT -0500)
Northeast of Benton | | Change Station
CLOSE
Current Station
Personal Weather Station
Location: Benton, IL
Elevation: 433 ft
Nearby Weather Stations

Elev 433 ft 38.01 °N, 88.90 °W | Updated 6 seconds ago

Clear
Clear
60.5 °F
Feels Like 60.5 °F
N
0.0
Wind Variable Wind from NW
Gusts 0.0 mph

Today
High -- | Low -- °F
--% Chance of Precip.
Yesterday
High -- | Low -- °F
Precip. -- in
6:22 AM 7:31 PM
Waxing Gibbous, 96% visible
Pressure 30.10 in
Visibility 10.0 miles
Clouds Clear
Dew Point 59 °F
Humidity 94%
Rainfall 0.00 in
Snow Depth Not available.
UV 0 out of 12
Pollen 9.90 out of 12
Air Quality Not available.
Flu Activity Not available.
METAR KMWA 280535Z AUTO 00000KT 10SM CLR 17/16 A3010 RMK AO2
Pressure 30.10 in
Visibility 10.0 miles
Clouds Clear
Dew Point 59 °F
Humidity 94%
Rainfall 0.00 in
Snow Depth Not available.
UV 0 out of 12
Pollen 9.90 out of 12
Air Quality Not available.
Flu Activity Not available.
METAR KMWA 280535Z AUTO 00000KT 10SM CLR 17/16 A3010 RMK AO2

10-Day Weather Forecast

×

Almanac

Astronomy

Aug. 28, 2015 Rise Set
Actual Time
Civil Twilight
Nautical Twilight
Astronomical Twilight
Moon
Length of Visible Light
Length of Day
Tomorrow will be .
, % of the Moon is Illuminated

Today's Extremes

State Highs State Lows

Community

WunderPhotos

Upload Photos

1,850,341 photos uploaded!

WunderBlogs® & News

Nearby

Air Quality

  Air Quality AQ Index Pollutant
Not available.

Snow Depth

Station Depth Elevation

Earthquake Activity

City Distance Mag. Time & Date
Minimum magnitude displayed is 2.5.

Coastal Water Temperatures

Place Temperature

Stations

Nearby Weather Stations

Station Location Temp. Windchill Dew Point Humidity Wind Precip. Elev Updated Type